Terminal Aerodrome Forecast
Issued by NWS Sioux Falls, SD

Home | Current Version | Previous Version | Graphics & Text | Print | Product List | Glossary On
Versions: 1 2 3 4 5 6 7 8 9 10 11 12 13 14 15 16
000
FTUS43 KFSD 251125
TAFHON
TAF
KHON 251125Z 2512/2612 05004KT P6SM -SHRA BKN030
     FM251300 14005KT P6SM BKN040
     FM251700 21006KT P6SM BKN080
     FM252000 23006KT P6SM SCT040 PROB30 2521/2523 4SM TSRA
      BKN050CB=

USA.gov is the U.S. government's official web portal to all federal, state and local government web resources and services.